Time;durP1;ratioP1;P1;durP2;ratioP2;P2;SDS_P1;SDS_P2;PMS_P1;PMS_P2;Temp;Humidity;BMP_temperature;BMP_pressure;BME280_temperature;BME280_humidity;BME280_pressure;Samples;Min_cycle;Max_cycle;Signal;HPM_P1;HPM_P2
2021/03/17 00:00:32;;;;;;;29.98;16.48;;;;;;;3.13;100.00;102404.06;5093348;28;20036;-73
2021/03/17 00:02:57;;;;;;;30.33;15.95;;;;;;;3.18;100.00;102405.25;5094571;28;20035;-72
2021/03/17 00:05:34;;;;;;;29.92;16.08;;;;;;;3.24;100.00;102417.78;5094150;28;20028;-72
2021/03/17 00:07:59;;;;;;;29.52;15.60;;;;;;;3.24;100.00;102412.56;5093813;28;20049;-73
2021/03/17 00:10:28;;;;;;;30.55;16.65;;;;;;;3.24;100.00;102415.16;5093154;28;20032;-73
2021/03/17 00:12:55;;;;;;;30.50;16.30;;;;;;;3.23;100.00;102421.19;5094012;28;20034;-73
2021/03/17 00:15:23;;;;;;;30.17;16.13;;;;;;;3.23;100.00;102423.81;5090606;28;20348;-73
2021/03/17 00:17:48;;;;;;;31.98;17.95;;;;;;;3.17;100.00;102421.72;5093494;28;20047;-73
2021/03/17 00:20:15;;;;;;;32.15;17.33;;;;;;;3.16;100.00;102414.72;5093214;28;20028;-73
2021/03/17 00:22:40;;;;;;;32.55;17.95;;;;;;;3.17;100.00;102415.59;5091291;28;20428;-73
2021/03/17 00:25:07;;;;;;;31.27;17.23;;;;;;;3.14;100.00;102417.22;5092069;28;20098;-73
2021/03/17 00:27:32;;;;;;;32.80;18.75;;;;;;;3.12;100.00;102417.94;5092481;28;20025;-73
2021/03/17 00:29:58;;;;;;;31.33;17.70;;;;;;;3.13;100.00;102423.28;5092760;28;20093;-73
2021/03/17 00:32:24;;;;;;;30.70;17.45;;;;;;;3.13;100.00;102424.97;5092670;28;20031;-72
2021/03/17 00:34:49;;;;;;;32.63;18.42;;;;;;;3.13;100.00;102433.72;5094889;28;20619;-72
2021/03/17 00:37:14;;;;;;;33.13;19.23;;;;;;;3.13;100.00;102431.13;5093455;28;20144;-72
2021/03/17 00:39:40;;;;;;;31.73;17.45;;;;;;;3.19;100.00;102432.28;5093559;28;20028;-73
2021/03/17 00:42:05;;;;;;;33.20;18.90;;;;;;;3.20;100.00;102431.47;5093104;28;20032;-73
2021/03/17 00:44:30;;;;;;;31.30;17.80;;;;;;;3.21;100.00;102434.16;5092632;28;20497;-71
2021/03/17 00:46:56;;;;;;;32.35;18.63;;;;;;;3.25;100.00;102445.72;5091875;28;20107;-73
2021/03/17 00:49:21;;;;;;;31.67;18.17;;;;;;;3.26;100.00;102444.91;5094084;28;20111;-73
2021/03/17 00:51:46;;;;;;;31.55;17.55;;;;;;;3.26;99.72;102453.66;5093357;28;20048;-73
2021/03/17 00:54:12;;;;;;;30.63;17.30;;;;;;;3.25;99.96;102458.81;5093105;28;20097;-68
2021/03/17 00:56:38;;;;;;;29.05;15.70;;;;;;;3.27;99.02;102452.81;5092377;28;20016;-72
2021/03/17 00:59:03;;;;;;;30.70;16.05;;;;;;;3.28;99.07;102456.38;5092470;28;20024;-72
2021/03/17 01:01:28;;;;;;;30.13;16.13;;;;;;;3.28;99.34;102459.88;5093304;28;20042;-73
2021/03/17 01:03:53;;;;;;;27.40;14.55;;;;;;;3.28;98.30;102458.97;5092920;28;20020;-71
2021/03/17 01:06:19;;;;;;;29.48;15.68;;;;;;;3.28;98.54;102458.97;5093962;28;20099;-73
2021/03/17 01:08:44;;;;;;;28.58;14.85;;;;;;;3.32;96.67;102455.75;5092067;28;20024;-71
2021/03/17 01:11:10;;;;;;;28.10;14.90;;;;;;;3.26;97.24;102450.13;5093492;28;20027;-72
2021/03/17 01:13:35;;;;;;;29.13;15.40;;;;;;;3.24;96.75;102454.38;5092733;28;20016;-71
2021/03/17 01:16:01;;;;;;;28.17;14.63;;;;;;;3.19;97.25;102456.72;5092428;28;20372;-73
2021/03/17 01:18:27;;;;;;;29.30;15.38;;;;;;;3.12;97.56;102458.03;5092188;28;20371;-73
2021/03/17 01:20:52;;;;;;;28.15;14.73;;;;;;;3.01;97.77;102443.41;5093738;28;20067;-73
2021/03/17 01:23:17;;;;;;;28.60;15.15;;;;;;;2.94;98.50;102446.47;5091530;28;20036;-73
2021/03/17 01:25:45;;;;;;;27.38;13.57;;;;;;;2.87;98.91;102447.81;5092070;28;20085;-72
2021/03/17 01:28:13;;;;;;;28.17;14.60;;;;;;;2.86;98.75;102452.94;5088488;28;20024;-72
2021/03/17 01:30:46;;;;;;;27.27;14.48;;;;;;;2.86;99.17;102452.94;5093161;28;20047;-72
2021/03/17 01:33:13;;;;;;;27.75;14.02;;;;;;;2.86;100.00;102452.94;5089218;28;20020;-68
2021/03/17 01:35:41;;;;;;;27.48;14.50;;;;;;;2.88;98.68;102444.38;5093048;28;20033;-72
2021/03/17 01:38:06;;;;;;;27.88;13.95;;;;;;;2.90;97.99;102449.72;5091005;28;20036;-73
2021/03/17 01:40:35;;;;;;;27.80;14.02;;;;;;;2.88;98.87;102451.31;5091966;28;20036;-72
2021/03/17 01:43:01;;;;;;;27.70;13.88;;;;;;;2.88;98.65;102453.94;5091521;28;20424;-71
2021/03/17 01:45:26;;;;;;;27.77;13.98;;;;;;;2.86;98.65;102459.06;5092684;28;20019;-71
2021/03/17 01:47:53;;;;;;;27.35;13.63;;;;;;;2.87;98.58;102460.88;5090972;28;20063;-72
2021/03/17 01:50:28;;;;;;;27.25;13.55;;;;;;;2.83;98.52;102458.88;5092030;28;20043;-68
2021/03/17 01:52:55;;;;;;;27.20;13.68;;;;;;;2.81;98.10;102468.34;5088934;28;20020;-73
2021/03/17 01:55:21;;;;;;;27.88;14.10;;;;;;;2.84;97.25;102473.75;5092651;28;20107;-73
2021/03/17 01:57:47;;;;;;;27.67;14.02;;;;;;;2.84;97.56;102470.22;5090941;28;20012;-72
2021/03/17 02:00:15;;;;;;;28.17;14.30;;;;;;;2.90;96.38;102478.47;5093179;28;20409;-71
2021/03/17 02:02:43;;;;;;;28.83;14.20;;;;;;;2.85;97.15;102493.81;5091374;28;20034;-73
2021/03/17 02:05:12;;;;;;;28.45;14.70;;;;;;;2.85;98.63;102495.53;5092107;28;20043;-73
2021/03/17 02:07:37;;;;;;;29.35;15.18;;;;;;;2.83;99.57;102503.28;5090330;28;20050;-72
2021/03/17 02:10:12;;;;;;;29.42;15.40;;;;;;;2.87;98.59;102504.38;5092148;28;20036;-72
2021/03/17 02:12:48;;;;;;;29.67;15.38;;;;;;;2.96;97.49;102513.69;5091155;28;20028;-72
2021/03/17 02:15:45;;;;;;;29.15;15.05;;;;;;;2.96;98.01;102520.63;5091086;28;20028;-72
2021/03/17 02:18:23;;;;;;;29.65;14.30;;;;;;;3.00;97.01;102519.09;5091512;28;20040;-73
2021/03/17 02:21:07;;;;;;;27.50;13.48;;;;;;;3.06;96.06;102511.63;5089951;28;20024;-73
2021/03/17 02:23:54;;;;;;;27.90;14.13;;;;;;;3.03;96.21;102501.91;5091594;28;20028;-73
2021/03/17 02:26:47;;;;;;;29.17;14.52;;;;;;;3.13;95.23;102508.59;5090461;28;20110;-73
2021/03/17 02:29:33;;;;;;;29.15;13.77;;;;;;;3.08;95.44;102500.47;5089411;28;20030;-73
2021/03/17 02:32:32;;;;;;;27.48;13.85;;;;;;;3.09;95.48;102493.56;5090031;28;20491;-74
2021/03/17 02:35:02;;;;;;;28.33;14.23;;;;;;;3.04;96.96;102494.97;5090340;28;20042;-74
2021/03/17 02:37:28;;;;;;;29.60;14.70;;;;;;;3.04;98.76;102488.03;5091351;28;20023;-73
2021/03/17 02:40:02;;;;;;;27.67;13.57;;;;;;;3.16;97.01;102487.91;5091621;28;20028;-74
2021/03/17 02:42:36;;;;;;;27.80;13.73;;;;;;;3.11;97.00;102484.97;5092285;28;20019;-73
2021/03/17 02:45:06;;;;;;;27.20;12.60;;;;;;;3.20;95.36;102483.75;5091044;28;20016;-74
2021/03/17 02:47:35;;;;;;;26.55;12.13;;;;;;;3.18;94.76;102481.03;5090337;28;20035;-74
2021/03/17 02:50:03;;;;;;;27.92;13.43;;;;;;;3.13;95.68;102478.16;5090841;28;20602;-74
2021/03/17 02:52:33;;;;;;;26.63;12.68;;;;;;;3.16;95.52;102485.28;5093182;28;20028;-73
2021/03/17 02:55:00;;;;;;;27.25;13.73;;;;;;;3.10;96.49;102477.97;5094559;28;20471;-74
2021/03/17 02:57:27;;;;;;;28.00;13.57;;;;;;;3.08;97.58;102479.56;5095923;28;20020;-73
2021/03/17 02:59:54;;;;;;;28.52;14.68;;;;;;;3.11;96.91;102469.28;5093836;28;20029;-74
2021/03/17 03:02:21;;;;;;;27.05;13.38;;;;;;;3.19;95.91;102474.09;5094142;28;20375;-73
2021/03/17 03:04:53;;;;;;;27.65;13.60;;;;;;;3.11;97.03;102463.19;5095050;28;20024;-73
2021/03/17 03:07:19;;;;;;;28.50;14.77;;;;;;;3.06;97.74;102461.97;5092260;28;20024;-74
2021/03/17 03:09:46;;;;;;;28.08;13.27;;;;;;;3.08;97.25;102458.66;5095490;28;20022;-72
2021/03/17 03:12:13;;;;;;;27.65;13.95;;;;;;;3.05;97.24;102458.47;5095803;28;20032;-74
2021/03/17 03:14:38;;;;;;;28.25;13.20;;;;;;;3.03;97.53;102452.28;5094389;28;20060;-74
2021/03/17 03:17:05;;;;;;;29.35;14.27;;;;;;;2.97;97.95;102460.63;5094667;28;20048;-73
2021/03/17 03:19:44;;;;;;;27.85;13.38;;;;;;;3.01;98.36;102453.88;5093952;28;20030;-74
2021/03/17 03:22:11;;;;;;;30.00;13.95;;;;;;;3.02;97.79;102450.47;5095508;28;20042;-73
2021/03/17 03:24:37;;;;;;;28.02;12.23;;;;;;;3.03;97.96;102449.66;5093498;28;20032;-73
2021/03/17 03:27:04;;;;;;;30.63;14.82;;;;;;;3.00;98.85;102443.31;5093575;28;20032;-73
2021/03/17 03:29:30;;;;;;;30.08;14.40;;;;;;;2.98;99.48;102456.31;5095337;28;20137;-73
2021/03/17 03:31:56;;;;;;;29.98;14.35;;;;;;;3.00;99.61;102446.88;5094225;28;20047;-70
2021/03/17 03:34:21;;;;;;;29.85;14.15;;;;;;;3.00;99.12;102453.78;5095276;28;20024;-73
2021/03/17 03:36:47;;;;;;;29.05;13.48;;;;;;;3.08;97.61;102457.78;5093758;28;20054;-73
2021/03/17 03:39:13;;;;;;;31.80;15.82;;;;;;;3.02;98.57;102453.06;5094641;28;20440;-73
2021/03/17 03:41:38;;;;;;;31.58;16.38;;;;;;;3.07;98.33;102451.66;5094019;28;20035;-73
2021/03/17 03:44:04;;;;;;;34.05;16.90;;;;;;;2.96;100.00;102450.09;5093951;28;20044;-72
2021/03/17 03:46:30;;;;;;;32.60;16.60;;;;;;;2.88;100.00;102443.50;5094682;28;20020;-73
2021/03/17 03:49:00;;;;;;;29.90;13.18;;;;;;;2.99;99.98;102445.06;5094418;28;20035;-73
2021/03/17 03:51:25;;;;;;;30.73;14.65;;;;;;;2.94;99.80;102454.31;5093334;28;20107;-73
2021/03/17 03:54:05;;;;;;;33.42;16.25;;;;;;;2.96;99.68;102442.25;5095649;28;20524;-73
2021/03/17 03:56:44;;;;;;;33.35;15.27;;;;;;;2.96;100.00;102452.72;5091570;28;20077;-73
2021/03/17 03:59:19;;;;;;;32.83;17.05;;;;;;;2.98;100.00;102469.38;5094247;28;20032;-72
2021/03/17 04:01:52;;;;;;;30.85;14.02;;;;;;;3.07;99.12;102467.34;5077436;28;20453;-73
2021/03/17 04:04:21;;;;;;;32.35;17.05;;;;;;;3.09;98.13;102468.31;5092859;28;20055;-74
2021/03/17 04:06:50;;;;;;;33.22;16.75;;;;;;;3.02;99.82;102471.38;5075735;28;20031;-72
2021/03/17 04:09:22;;;;;;;32.25;16.67;;;;;;;3.05;100.00;102476.78;5091683;28;20028;-71
2021/03/17 04:11:49;;;;;;;31.80;16.15;;;;;;;3.08;99.78;102473.44;5094744;28;20020;-73
2021/03/17 04:14:18;;;;;;;34.17;18.17;;;;;;;3.01;100.00;102482.63;5091973;28;20031;-73
2021/03/17 04:16:46;;;;;;;32.97;16.38;;;;;;;3.06;100.00;102483.81;5093762;28;20135;-73
2021/03/17 04:19:13;;;;;;;32.72;17.33;;;;;;;3.22;96.66;102483.03;5093859;28;20036;-73
2021/03/17 04:21:40;;;;;;;32.25;16.70;;;;;;;3.16;97.83;102482.66;5092543;28;20473;-71
2021/03/17 04:24:07;;;;;;;32.78;16.67;;;;;;;3.18;98.00;102485.38;5093128;28;20024;-72
2021/03/17 04:26:35;;;;;;;32.03;15.43;;;;;;;3.17;98.02;102474.00;5093935;28;20116;-73
2021/03/17 04:29:02;;;;;;;32.22;15.95;;;;;;;3.07;99.32;102471.63;5092453;28;20031;-73
2021/03/17 04:31:29;;;;;;;35.42;18.25;;;;;;;3.08;99.66;102474.34;5075542;28;20454;-73
2021/03/17 04:33:55;;;;;;;34.35;17.65;;;;;;;3.02;100.00;102479.19;5093975;28;20081;-73
2021/03/17 04:36:22;;;;;;;37.03;18.63;;;;;;;3.05;100.00;102476.78;5092263;28;20031;-72
2021/03/17 04:38:48;;;;;;;33.33;17.27;;;;;;;3.07;100.00;102485.63;5093622;28;20035;-73
2021/03/17 04:41:15;;;;;;;34.08;17.10;;;;;;;3.05;100.00;102482.00;5092368;28;20036;-73
2021/03/17 04:43:42;;;;;;;34.75;16.98;;;;;;;3.09;100.00;102484.00;5092826;28;20024;-73
2021/03/17 04:46:10;;;;;;;35.20;17.45;;;;;;;3.08;100.00;102481.28;5093670;28;20053;-72
2021/03/17 04:48:38;;;;;;;35.75;17.98;;;;;;;3.19;99.69;102487.16;5092266;28;20028;-72
2021/03/17 04:51:05;;;;;;;34.78;17.33;;;;;;;3.16;99.78;102487.91;5093235;28;20052;-73
2021/03/17 04:53:31;;;;;;;36.95;19.20;;;;;;;3.14;100.00;102495.63;5092555;28;20028;-71
2021/03/17 04:55:57;;;;;;;33.55;16.45;;;;;;;3.14;100.00;102487.78;5093377;28;20024;-72
2021/03/17 04:58:25;;;;;;;36.00;18.15;;;;;;;3.14;100.00;102490.38;5092351;28;20459;-73
2021/03/17 05:00:53;;;;;;;37.08;18.63;;;;;;;3.10;100.00;102500.56;5089064;28;20023;-73
2021/03/17 05:03:22;;;;;;;35.47;17.67;;;;;;;3.14;100.00;102502.56;5092567;28;20398;-74
2021/03/17 05:05:50;;;;;;;36.22;18.50;;;;;;;3.11;100.00;102505.00;5091697;28;20039;-73
2021/03/17 05:08:17;;;;;;;36.92;18.92;;;;;;;3.13;100.00;102514.75;5092613;28;20028;-73
2021/03/17 05:10:44;;;;;;;38.13;19.13;;;;;;;3.10;100.00;102511.03;5093323;28;20039;-73
2021/03/17 05:13:11;;;;;;;37.25;18.73;;;;;;;3.12;100.00;102507.69;5092426;28;20055;-72
2021/03/17 05:15:38;;;;;;;36.47;18.58;;;;;;;3.18;100.00;102512.41;5091402;28;20028;-73
2021/03/17 05:18:05;;;;;;;36.80;19.30;;;;;;;3.24;100.00;102507.53;5092536;28;20549;-72
2021/03/17 05:20:33;;;;;;;38.03;19.90;;;;;;;3.13;100.00;102509.50;5091034;28;20028;-73
2021/03/17 05:22:59;;;;;;;31.08;13.48;;;;;;;3.33;100.00;102508.91;5092942;28;20024;-73
2021/03/17 05:25:25;;;;;;;36.03;18.67;;;;;;;3.27;100.00;102506.84;5091886;28;20028;-73
2021/03/17 05:28:03;;;;;;;37.38;18.70;;;;;;;3.23;100.00;102502.22;5091703;28;20038;-71
2021/03/17 05:30:31;;;;;;;37.13;19.02;;;;;;;3.27;100.00;102506.84;5091467;28;20066;-74
2021/03/17 05:32:58;;;;;;;35.50;18.35;;;;;;;3.23;100.00;102500.53;5094267;28;20035;-73
2021/03/17 05:35:24;;;;;;;36.60;19.58;;;;;;;3.23;100.00;102497.00;5091877;28;20023;-74
2021/03/17 05:37:49;;;;;;;38.15;20.60;;;;;;;3.22;100.00;102495.19;5092869;28;20024;-74
2021/03/17 05:40:16;;;;;;;36.97;19.35;;;;;;;3.25;100.00;102496.28;5090885;28;20059;-72
2021/03/17 05:42:43;;;;;;;38.08;19.83;;;;;;;3.25;100.00;102504.13;5093436;28;20056;-73
2021/03/17 05:45:19;;;;;;;37.38;18.67;;;;;;;3.26;100.00;102503.31;5073270;28;20016;-73
2021/03/17 05:47:46;;;;;;;36.05;18.65;;;;;;;3.36;100.00;102494.31;5092862;28;20023;-74
2021/03/17 05:50:15;;;;;;;36.83;18.83;;;;;;;3.33;100.00;102493.22;5092028;28;20073;-74
2021/03/17 05:52:42;;;;;;;36.65;19.10;;;;;;;3.27;100.00;102494.66;5091492;28;20028;-73
2021/03/17 05:55:10;;;;;;;39.05;19.25;;;;;;;3.27;100.00;102502.50;5090755;28;20056;-73
2021/03/17 05:57:37;;;;;;;37.95;18.95;;;;;;;3.30;100.00;102501.78;5092231;28;20474;-74
2021/03/17 06:00:10;;;;;;;37.28;20.00;;;;;;;3.30;100.00;102507.00;5091328;28;20020;-73
2021/03/17 06:02:39;;;;;;;36.80;18.38;;;;;;;3.34;100.00;102509.00;5091384;28;20382;-73
2021/03/17 06:05:07;;;;;;;34.78;17.52;;;;;;;3.32;100.00;102502.81;5091156;28;20032;-74
2021/03/17 06:07:51;;;;;;;36.35;19.20;;;;;;;3.37;100.00;102492.63;5089514;28;20490;-74
2021/03/17 06:10:17;;;;;;;32.22;14.98;;;;;;;3.44;100.00;102484.31;5090021;28;20451;-73
2021/03/17 06:12:47;;;;;;;32.20;15.57;;;;;;;3.49;100.00;102496.88;5091510;28;20081;-72
2021/03/17 06:15:15;;;;;;;33.90;17.30;;;;;;;3.53;100.00;102487.47;5092306;28;20093;-73
2021/03/17 06:17:43;;;;;;;32.75;15.98;;;;;;;3.57;100.00;102488.53;5091289;28;20095;-74
2021/03/17 06:20:10;;;;;;;33.35;16.95;;;;;;;3.53;100.00;102483.97;5091626;28;20028;-73
2021/03/17 06:22:36;;;;;;;33.05;17.25;;;;;;;3.53;100.00;102465.66;5091917;28;20032;-72
2021/03/17 06:25:06;;;;;;;30.73;15.52;;;;;;;3.55;100.00;102467.53;5093374;28;20020;-73
2021/03/17 06:27:34;;;;;;;32.38;16.38;;;;;;;3.59;100.00;102469.53;5095138;28;20031;-74
2021/03/17 06:30:01;;;;;;;34.00;17.33;;;;;;;3.63;100.00;102486.31;5081839;28;20058;-75
2021/03/17 06:32:29;;;;;;;32.53;15.98;;;;;;;3.66;100.00;102484.75;5094982;28;20115;-73
2021/03/17 06:34:54;;;;;;;32.13;15.23;;;;;;;3.70;100.00;102479.72;5095972;28;20371;-75
2021/03/17 06:37:35;;;;;;;30.17;14.63;;;;;;;3.76;100.00;102475.75;5094668;28;20053;-73
2021/03/17 06:40:00;;;;;;;29.95;14.45;;;;;;;3.79;100.00;102475.94;5096178;28;20024;-73
2021/03/17 06:42:38;;;;;;;28.67;12.90;;;;;;;3.97;100.00;102488.28;5094729;28;20028;-73
2021/03/17 06:45:04;;;;;;;29.08;14.30;;;;;;;3.83;100.00;102487.50;5095717;28;20107;-73
2021/03/17 06:47:30;;;;;;;29.00;14.18;;;;;;;3.89;100.00;102490.44;5094179;28;20131;-65
2021/03/17 06:49:55;;;;;;;27.55;13.50;;;;;;;3.97;100.00;102496.13;5095568;28;20118;-79
2021/03/17 06:52:35;;;;;;;27.65;13.70;;;;;;;4.09;97.20;102490.69;5095775;28;20115;-77
2021/03/17 06:55:03;;;;;;;27.13;12.93;;;;;;;4.11;97.32;102494.31;5095064;28;20024;-79
2021/03/17 06:57:29;;;;;;;27.42;12.60;;;;;;;4.14;96.98;102497.09;5092014;28;20032;-73
2021/03/17 06:59:54;;;;;;;26.45;11.50;;;;;;;4.19;96.72;102496.53;5095286;28;20191;-69
2021/03/17 07:02:19;;;;;;;27.67;12.95;;;;;;;4.22;96.58;102485.31;5094614;28;20548;-73
2021/03/17 07:04:52;;;;;;;25.85;12.60;;;;;;;4.29;97.05;102494.44;5095134;28;20036;-74
2021/03/17 07:07:20;;;;;;;26.88;11.63;;;;;;;4.35;94.42;102490.47;5095652;28;20032;-84
2021/03/17 07:09:58;;;;;;;24.90;10.93;;;;;;;4.41;94.25;102486.38;5095411;28;20028;-74
2021/03/17 07:12:30;;;;;;;27.27;11.02;;;;;;;4.30;93.23;102499.75;5093441;28;20024;-68
2021/03/17 07:15:07;;;;;;;26.48;12.38;;;;;;;4.29;94.57;102497.06;5095041;28;20024;-71
2021/03/17 07:17:32;;;;;;;25.10;11.63;;;;;;;4.29;94.04;102502.28;5091122;28;20040;-73
2021/03/17 07:19:58;;;;;;;24.77;10.50;;;;;;;4.33;92.88;102497.31;5093790;28;20089;-71
2021/03/17 07:22:25;;;;;;;25.70;11.40;;;;;;;4.31;94.43;102500.66;5093915;28;20119;-74
2021/03/17 07:24:55;;;;;;;24.58;10.85;;;;;;;4.36;93.96;102500.09;5094863;28;20070;-73
2021/03/17 07:27:22;;;;;;;25.55;10.80;;;;;;;4.45;92.82;102497.09;5093718;28;20035;-79
2021/03/17 07:29:59;;;;;;;25.02;11.15;;;;;;;4.48;93.94;102505.13;5094169;28;20082;-73
2021/03/17 07:32:25;;;;;;;24.23;10.63;;;;;;;4.52;92.98;102509.72;5094716;28;20036;-70
2021/03/17 07:34:51;;;;;;;23.80;10.35;;;;;;;4.53;93.64;102511.53;5095124;28;20372;-72
2021/03/17 07:37:16;;;;;;;23.90;9.93;;;;;;;4.56;92.78;102515.13;5093200;28;20038;-72
2021/03/17 07:39:43;;;;;;;24.95;9.45;;;;;;;4.49;92.71;102527.88;5094927;28;20107;-79
2021/03/17 07:42:10;;;;;;;24.52;9.80;;;;;;;4.40;93.37;102543.09;5092460;28;20028;-74
2021/03/17 07:44:38;;;;;;;22.52;8.73;;;;;;;4.36;93.26;102541.09;5094738;28;20032;-75
2021/03/17 07:47:06;;;;;;;22.73;8.90;;;;;;;4.23;95.31;102536.88;5094743;28;20054;-73
2021/03/17 07:49:35;;;;;;;22.90;9.43;;;;;;;4.25;96.34;102552.66;5095489;28;20043;-72
2021/03/17 07:52:02;;;;;;;23.77;9.70;;;;;;;4.33;95.59;102535.69;5094185;28;20420;-74
2021/03/17 07:54:36;;;;;;;23.10;9.02;;;;;;;4.33;95.78;102533.06;5097251;28;20073;-78
2021/03/17 07:57:05;;;;;;;22.40;7.88;;;;;;;4.35;94.20;102545.44;5090948;28;20118;-87
2021/03/17 07:59:31;;;;;;;20.58;7.47;;;;;;;4.34;93.78;102545.38;5093916;28;20077;-75
2021/03/17 08:01:58;;;;;;;20.70;7.22;;;;;;;4.43;92.72;102538.03;5093261;28;20031;-77
2021/03/17 08:04:32;;;;;;;20.10;6.40;;;;;;;4.36;92.71;102541.09;5093515;28;20028;-79
2021/03/17 08:07:03;;;;;;;19.45;5.45;;;;;;;4.29;93.74;102534.59;5092851;28;20086;-75
2021/03/17 08:09:28;;;;;;;18.83;5.47;;;;;;;4.31;92.76;102534.69;5093486;28;20028;-77
2021/03/17 08:11:56;;;;;;;19.52;5.65;;;;;;;4.32;93.99;102526.03;5094471;28;20016;-74
2021/03/17 08:14:24;;;;;;;19.27;5.72;;;;;;;4.38;94.25;102528.09;5091555;28;20115;-76
2021/03/17 08:16:50;;;;;;;20.40;5.65;;;;;;;4.44;93.75;102531.97;5097287;28;20040;-76
2021/03/17 08:19:18;;;;;;;19.33;5.25;;;;;;;4.52;91.58;102542.88;5094007;28;20028;-74
2021/03/17 08:21:53;;;;;;;18.75;5.20;;;;;;;4.54;91.21;102542.16;5093455;28;20051;-72
2021/03/17 08:24:37;;;;;;;19.52;5.30;;;;;;;4.58;89.48;102543.22;5092826;28;20032;-72
2021/03/17 08:27:06;;;;;;;19.65;5.43;;;;;;;4.57;90.21;102545.75;5092142;28;20030;-74
2021/03/17 08:29:44;;;;;;;19.52;5.20;;;;;;;4.58;89.69;102548.44;5093683;28;20111;-74
2021/03/17 08:32:11;;;;;;;16.50;4.47;;;;;;;4.59;88.04;102554.56;5090927;28;20032;-74
2021/03/17 08:34:38;;;;;;;15.82;4.25;;;;;;;4.62;87.21;102566.16;5092456;28;20082;-74
2021/03/17 08:37:05;;;;;;;17.27;4.25;;;;;;;4.52;88.16;102569.06;5093651;28;20059;-74
2021/03/17 08:39:33;;;;;;;16.08;4.13;;;;;;;4.52;88.16;102569.97;5092413;28;20108;-74
2021/03/17 08:42:11;;;;;;;16.45;4.22;;;;;;;4.51;88.63;102569.88;5092572;28;20070;-74
2021/03/17 08:44:39;;;;;;;16.60;4.60;;;;;;;4.81;88.57;102582.91;5090163;28;20386;-75
2021/03/17 08:47:17;;;;;;;17.65;4.63;;;;;;;5.05;88.25;102584.25;5093722;28;20356;-74
2021/03/17 08:49:44;;;;;;;14.77;4.22;;;;;;;5.14;85.35;102585.56;5092350;28;20020;-72
2021/03/17 08:52:17;;;;;;;17.85;4.38;;;;;;;5.18;84.98;102582.28;5093320;28;20040;-75
2021/03/17 08:54:49;;;;;;;12.35;3.38;;;;;;;5.14;82.53;102586.47;5091821;28;20027;-74
2021/03/17 08:57:15;;;;;;;14.60;3.42;;;;;;;5.11;83.08;102591.56;5091716;28;20528;-74
2021/03/17 08:59:44;;;;;;;12.43;3.17;;;;;;;5.07;82.85;102584.34;5092112;28;20509;-74
2021/03/17 09:02:16;;;;;;;9.10;2.80;;;;;;;4.94;83.40;102589.72;5093292;28;20451;-75
2021/03/17 09:04:49;;;;;;;9.48;2.90;;;;;;;4.76;83.83;102582.66;5092093;28;20363;-75
2021/03/17 09:07:16;;;;;;;11.50;3.03;;;;;;;4.71;84.21;102592.84;5091538;28;20062;-75
2021/03/17 09:09:49;;;;;;;11.68;2.80;;;;;;;4.80;84.89;102589.84;5091368;28;20077;-75
2021/03/17 09:12:17;;;;;;;10.52;2.80;;;;;;;4.91;83.67;102597.41;5091627;28;20020;-76
2021/03/17 09:14:42;;;;;;;7.47;2.53;;;;;;;5.21;83.12;102596.47;5091529;28;20048;-75
2021/03/17 09:17:23;;;;;;;9.07;2.67;;;;;;;5.68;81.56;102591.03;5092953;28;20075;-69
2021/03/17 09:20:06;;;;;;;10.60;2.80;;;;;;;6.06;80.83;102586.91;5091706;28;20118;-73
2021/03/17 09:22:49;;;;;;;11.05;2.88;;;;;;;6.48;78.91;102588.94;5095900;28;20032;-76
2021/03/17 09:25:23;;;;;;;10.40;2.90;;;;;;;6.70;78.32;102588.25;5090861;28;20036;-75
2021/03/17 09:28:02;;;;;;;9.95;3.00;;;;;;;6.93;76.81;102586.72;5092315;28;20093;-76
2021/03/17 09:30:39;;;;;;;10.00;2.90;;;;;;;7.02;75.90;102586.25;5092417;28;20126;-76
2021/03/17 09:33:14;;;;;;;7.72;2.58;;;;;;;7.11;74.93;102592.84;5075702;28;20042;-76
2021/03/17 09:35:45;;;;;;;9.70;2.60;;;;;;;6.99;72.76;102602.81;5089866;28;20447;-75
2021/03/17 09:38:13;;;;;;;7.70;2.50;;;;;;;6.94;73.02;102596.41;5092406;28;20026;-76
2021/03/17 09:40:49;;;;;;;10.63;2.70;;;;;;;6.93;75.26;102597.25;5091025;28;20062;-75
2021/03/17 09:43:32;;;;;;;10.25;2.30;;;;;;;7.02;74.67;102591.50;5092700;28;20028;-76
2021/03/17 09:45:59;;;;;;;7.03;2.15;;;;;;;7.16;71.66;102593.06;5090845;28;20042;-76
2021/03/17 09:48:25;;;;;;;5.82;2.30;;;;;;;7.15;70.24;102594.81;5092826;28;20019;-76
2021/03/17 09:50:56;;;;;;;6.85;2.22;;;;;;;7.02;70.44;102586.25;5092163;28;20379;-75
2021/03/17 09:53:22;;;;;;;10.90;2.30;;;;;;;6.92;69.51;102595.47;5072964;28;20085;-76
2021/03/17 09:55:47;;;;;;;9.02;2.40;;;;;;;6.87;68.49;102595.22;5091888;28;20024;-75
2021/03/17 09:58:13;;;;;;;6.72;2.30;;;;;;;6.87;69.96;102586.44;5074579;28;20097;-75
2021/03/17 10:00:39;;;;;;;10.70;2.72;;;;;;;6.77;68.71;102596.53;5091856;28;20024;-75
2021/03/17 10:03:11;;;;;;;10.27;2.40;;;;;;;6.75;70.61;102594.66;5092487;28;20028;-76
2021/03/17 10:05:37;;;;;;;9.00;2.40;;;;;;;6.97;71.19;102591.31;5091288;28;20078;-76
2021/03/17 10:08:03;;;;;;;10.48;2.42;;;;;;;7.10;69.05;102600.69;5091424;28;20028;-81
2021/03/17 10:10:28;;;;;;;7.80;2.42;;;;;;;7.23;70.29;102596.88;5086847;28;20093;-64
2021/03/17 10:12:54;;;;;;;11.13;2.50;;;;;;;7.33;68.43;102593.84;5091895;28;20098;-65
2021/03/17 10:15:23;;;;;;;8.98;2.22;;;;;;;7.29;67.60;102602.41;5090638;28;20039;-64
2021/03/17 10:17:50;;;;;;;6.15;2.30;;;;;;;7.12;68.18;102596.38;5090834;28;20048;-66
2021/03/17 10:20:24;;;;;;;10.98;2.70;;;;;;;7.20;67.07;102576.59;5090743;28;20028;-67
2021/03/17 10:22:51;;;;;;;12.88;2.83;;;;;;;7.77;67.07;102580.84;5092019;28;20563;-64
2021/03/17 10:25:22;;;;;;;10.95;2.42;;;;;;;8.03;65.76;102579.34;5091017;28;20103;-64
2021/03/17 10:28:09;;;;;;;10.05;2.70;;;;;;;7.79;68.45;102582.72;5092756;28;20030;-69
2021/03/17 10:30:42;;;;;;;8.00;2.20;;;;;;;7.81;68.41;102567.00;5091234;28;20568;-66
2021/03/17 10:33:12;;;;;;;10.98;2.60;;;;;;;8.12;65.85;102570.94;5072681;28;20024;-68
2021/03/17 10:35:38;;;;;;;5.50;2.17;;;;;;;8.83;63.10;102572.06;5091768;28;20020;-71
2021/03/17 10:38:06;;;;;;;8.75;2.50;;;;;;;9.30;61.56;102563.28;5091023;28;20035;-65
2021/03/17 10:40:32;;;;;;;9.73;2.40;;;;;;;9.37;59.64;102566.19;5092247;28;20116;-64
2021/03/17 10:43:09;;;;;;;8.02;2.28;;;;;;;9.07;61.08;102566.84;5091063;28;20099;-65
2021/03/17 10:45:48;;;;;;;8.45;2.38;;;;;;;8.75;61.86;102554.16;5088408;28;20374;-65
2021/03/17 10:48:24;;;;;;;11.75;2.40;;;;;;;8.19;62.29;102559.81;5089118;28;20028;-76
2021/03/17 10:50:51;;;;;;;13.73;2.80;;;;;;;7.87;62.97;102554.09;5091980;28;20032;-72
2021/03/17 10:53:21;;;;;;;9.90;2.30;;;;;;;7.71;64.08;102563.06;5090812;28;20478;-63
2021/03/17 10:55:52;;;;;;;13.25;2.70;;;;;;;7.54;64.60;102564.94;5089315;28;20055;-64
2021/03/17 10:58:19;;;;;;;12.70;2.60;;;;;;;7.37;64.18;102566.84;5091864;28;20023;-66
2021/03/17 11:00:51;;;;;;;10.05;2.47;;;;;;;7.11;66.40;102570.91;5090258;28;20085;-65
2021/03/17 11:03:41;;;;;;;11.05;2.97;;;;;;;6.73;68.64;102570.91;5089873;28;20470;-65
2021/03/17 11:06:11;;;;;;;9.32;2.47;;;;;;;6.91;68.84;102576.13;5092386;28;20024;-64
2021/03/17 11:08:37;;;;;;;12.52;2.63;;;;;;;7.67;67.93;102576.91;5087947;28;20027;-64
2021/03/17 11:11:04;;;;;;;13.73;2.80;;;;;;;8.57;65.53;102571.06;5090952;28;20032;-64
2021/03/17 11:13:30;;;;;;;12.82;2.90;;;;;;;8.89;63.81;102576.69;5092932;28;20016;-64
2021/03/17 11:15:59;;;;;;;12.73;2.67;;;;;;;9.05;62.66;102568.53;5095099;28;20420;-64
2021/03/17 11:18:30;;;;;;;9.68;2.65;;;;;;;8.81;63.12;102575.50;5095822;28;20032;-64
2021/03/17 11:21:02;;;;;;;14.00;3.30;;;;;;;8.44;64.26;102576.63;5093751;28;20470;-74
2021/03/17 11:23:32;;;;;;;14.23;2.90;;;;;;;8.03;64.47;102585.50;5094473;28;20481;-70
2021/03/17 11:25:58;;;;;;;15.55;2.90;;;;;;;7.59;65.71;102591.50;5092066;28;20499;-74
2021/03/17 11:28:26;;;;;;;11.80;2.80;;;;;;;7.26;68.21;102597.91;5094115;28;20028;-73